Weather at Brantford Municipal Airport

Public forecast

Using degrees Celsius for public forecast. Weather courtesy of forecast.io.

Closest aviation weather report (METAR) to Brantford Municipal Airport

Closest report is John C. Munro Hamilton International Airport, 18.0 nm (33.4 km) E.

2024/05/27 21:00 (retrieved 53 minutes ago)

CYHM 272100Z 21019G30KT 15SM FEW033 SCT250 22/15 A2951 RMK CU2CI1 CB TOPS DSNT S+N SLP991 DENSITY ALT 2300FT

Closest aviation forecast (TAF) to Brantford Municipal Airport

Closest forecast is John C. Munro Hamilton International Airport, 18.0 nm (33.4 km) E.

2024/05/27 18:42 (retrieved 3 hours ago)

TAF TAF CYHM 271740Z 2718/2818 22015G25KT P6SM BKN025 TEMPO 2718/2722 5SM -SHRA BR BKN015 PROB30 2718/2722 VRB20G30KT 2SM +TSRA BR BKN008 OVC020CB FM272200 24020G30KT P6SM BKN025 TEMPO 2722/2803 BKN015 BECMG 2722/2724 24015G25KT FM280300 24012G22KT 6SM -DZ BR BKN008 OVC015 BECMG 2806/2808 28010KT FM281200 28010G20KT P6SM BKN015 OVC060 RMK NXT FCST BY 280000Z